Time,TemperatureF,DewpointF,PressureIn,WindDirection,WindDirectionDegrees,WindSpeedMPH,WindSpeedGustMPH,Humidity,HourlyPrecipIn,Conditions,Clouds,dailyrainin,SolarRadiationWatts/m^2,SoftwareType,DateUTC
2013-03-25 00:04:00,13.7,2.4,30.08,North,-999,2.0,5.0,60,0.00,,,0.00,0.00,VWS V14.01,2013-03-25 06:04:00,
2013-03-25 00:09:00,14.6,2.5,30.08,North,-999,0.0,0.0,58,0.00,,,0.00,0.00,VWS V14.01,2013-03-25 06:09:00,
2013-03-25 00:14:00,15.5,3.7,30.08,North,-999,0.0,0.0,59,0.00,,,0.00,0.00,VWS V14.01,2013-03-25 06:14:00,
2013-03-25 00:19:00,17.2,5.0,30.08,North,-999,0.0,1.0,58,0.00,,,0.00,0.00,VWS V14.01,2013-03-25 06:19:00,
2013-03-25 00:24:00,18.3,5.2,30.08,North,-999,0.0,1.0,56,0.00,,,0.00,0.00,VWS V14.01,2013-03-25 06:24:00,
2013-03-25 00:29:00,18.1,3.9,30.08,North,-999,0.0,0.0,53,0.00,,,0.00,0.00,VWS V14.01,2013-03-25 06:29:00,
2013-03-25 00:34:00,17.2,3.4,30.08,North,-999,0.0,0.0,54,0.00,,,0.00,0.00,VWS V14.01,2013-03-25 06:34:00,
2013-03-25 00:39:00,17.0,3.6,30.08,North,-999,0.0,0.0,55,0.00,,,0.00,0.00,VWS V14.01,2013-03-25 06:39:00,
2013-03-25 00:44:00,16.8,3.5,30.07,North,-999,0.0,0.0,55,0.00,,,0.00,0.00,VWS V14.01,2013-03-25 06:44:00,
2013-03-25 00:49:00,16.6,3.3,30.07,North,-999,0.0,0.0,55,0.00,,,0.00,0.00,VWS V14.01,2013-03-25 06:49:00,
2013-03-25 00:54:00,15.5,0.2,30.08,North,-999,0.0,1.0,50,0.00,,,0.00,0.00,VWS V14.01,2013-03-25 06:54:00,
2013-03-25 00:59:00,14.9,1.3,30.07,North,-999,0.0,0.0,54,0.00,,,0.00,0.00,VWS V14.01,2013-03-25 06:59:00,
2013-03-25 01:04:00,15.3,2.4,30.08,North,-999,0.0,2.0,56,0.00,,,0.00,0.00,VWS V14.01,2013-03-25 07:04:00,
2013-03-25 01:09:00,15.6,2.7,30.08,North,-999,0.0,0.0,56,0.00,,,0.00,0.00,VWS V14.01,2013-03-25 07:09:00,
2013-03-25 01:14:00,15.1,1.5,30.07,North,-999,0.0,0.0,54,0.00,,,0.00,0.00,VWS V14.01,2013-03-25 07:14:00,
2013-03-25 01:19:00,14.0,0.8,30.07,North,-999,0.0,0.0,55,0.00,,,0.00,0.00,VWS V14.01,2013-03-25 07:19:00,
2013-03-25 01:24:00,13.4,-0.1,30.07,North,-999,0.0,0.0,54,0.00,,,0.00,0.00,VWS V14.01,2013-03-25 07:24:00,
2013-03-25 01:29:00,13.2,1.2,30.07,North,-999,0.0,0.0,58,0.00,,,0.00,0.00,VWS V14.01,2013-03-25 07:29:00,
2013-03-25 01:34:00,14.1,2.0,30.07,North,-999,3.0,5.0,58,0.00,,,0.00,0.00,VWS V14.01,2013-03-25 07:34:00,
2013-03-25 01:39:00,14.3,2.6,30.07,North,-999,6.0,7.0,59,0.00,,,0.00,0.00,VWS V14.01,2013-03-25 07:39:00,
2013-03-25 01:44:00,13.0,-0.5,30.07,North,-999,6.0,7.0,54,0.00,,,0.00,0.00,VWS V14.01,2013-03-25 07:44:00,
2013-03-25 01:49:00,12.4,-0.7,30.07,North,-999,6.0,7.0,55,0.00,,,0.00,0.00,VWS V14.01,2013-03-25 07:49:00,
2013-03-25 01:54:00,13.5,1.5,30.07,North,-999,5.0,7.0,58,0.00,,,0.00,0.00,VWS V14.01,2013-03-25 07:54:00,
2013-03-25 01:59:00,13.4,0.6,30.07,North,-999,4.0,5.0,56,0.00,,,0.00,0.00,VWS V14.01,2013-03-25 07:59:00,
2013-03-25 02:04:00,13.7,1.3,30.07,North,-999,3.0,5.0,57,0.00,,,0.00,0.00,VWS V14.01,2013-03-25 08:04:00,
2013-03-25 02:09:00,13.5,0.7,30.07,North,-999,3.0,4.0,56,0.00,,,0.00,0.00,VWS V14.01,2013-03-25 08:09:00,
2013-03-25 02:14:00,13.5,1.1,30.07,North,-999,5.0,5.0,57,0.00,,,0.00,0.00,VWS V14.01,2013-03-25 08:14:00,
2013-03-25 02:19:00,13.3,0.9,30.07,North,-999,5.0,5.0,57,0.00,,,0.00,0.00,VWS V14.01,2013-03-25 08:19:00,
2013-03-25 02:24:00,13.9,2.2,30.07,North,-999,3.0,5.0,59,0.00,,,0.00,0.00,VWS V14.01,2013-03-25 08:24:00,
2013-03-25 02:29:00,14.5,3.5,30.07,North,-999,4.0,4.0,61,0.00,,,0.00,0.00,VWS V14.01,2013-03-25 08:29:00,
2013-03-25 02:34:00,14.8,3.1,30.07,North,-999,3.0,5.0,59,0.00,,,0.00,0.00,VWS V14.01,2013-03-25 08:34:00,
2013-03-25 02:39:00,14.7,3.0,30.07,North,-999,0.0,1.0,59,0.00,,,0.00,0.00,VWS V14.01,2013-03-25 08:39:00,
2013-03-25 02:44:00,14.9,3.9,30.07,North,-999,0.0,2.0,61,0.00,,,0.00,0.00,VWS V14.01,2013-03-25 08:44:00,
2013-03-25 02:49:00,14.9,3.5,30.07,North,-999,5.0,6.0,60,0.00,,,0.00,0.00,VWS V14.01,2013-03-25 08:49:00,
2013-03-25 02:54:00,13.5,1.1,30.07,North,-999,5.0,6.0,57,0.00,,,0.00,0.00,VWS V14.01,2013-03-25 08:54:00,
2013-03-25 02:59:00,13.7,3.1,30.07,North,-999,5.0,6.0,62,0.00,,,0.00,0.00,VWS V14.01,2013-03-25 08:59:00,
2013-03-25 03:04:00,14.5,4.2,30.07,North,-999,4.0,6.0,63,0.00,,,0.00,0.00,VWS V14.01,2013-03-25 09:04:00,
2013-03-25 03:09:00,14.4,3.1,30.07,North,-999,3.0,4.0,60,0.00,,,0.00,0.00,VWS V14.01,2013-03-25 09:09:00,
2013-03-25 03:14:00,13.6,2.0,30.07,North,-999,0.0,4.0,59,0.00,,,0.00,0.00,VWS V14.01,2013-03-25 09:14:00,
2013-03-25 03:19:00,13.2,2.3,30.07,North,-999,0.0,0.0,61,0.00,,,0.00,0.00,VWS V14.01,2013-03-25 09:19:00,
2013-03-25 03:24:00,13.0,2.1,30.07,North,-999,0.0,0.0,61,0.00,,,0.00,0.00,VWS V14.01,2013-03-25 09:24:00,
2013-03-25 03:29:00,13.2,3.3,30.07,North,-999,0.0,0.0,64,0.00,,,0.00,0.00,VWS V14.01,2013-03-25 09:29:00,
2013-03-25 03:34:00,13.5,3.6,30.07,North,-999,0.0,0.0,64,0.00,,,0.00,0.00,VWS V14.01,2013-03-25 09:34:00,
2013-03-25 03:39:00,13.5,2.9,30.07,North,-999,0.0,0.0,62,0.00,,,0.00,0.00,VWS V14.01,2013-03-25 09:39:00,
2013-03-25 03:44:00,13.0,2.1,30.07,North,-999,0.0,0.0,61,0.00,,,0.00,0.00,VWS V14.01,2013-03-25 09:44:00,
2013-03-25 03:49:00,12.6,1.4,30.07,North,-999,0.0,0.0,60,0.00,,,0.00,0.00,VWS V14.01,2013-03-25 09:49:00,
2013-03-25 03:54:00,12.5,2.7,30.07,North,-999,0.0,0.0,64,0.00,,,0.00,0.00,VWS V14.01,2013-03-25 09:54:00,
2013-03-25 03:59:00,13.0,4.4,30.07,North,-999,0.0,0.0,68,0.00,,,0.00,0.00,VWS V14.01,2013-03-25 09:59:00,
2013-03-25 04:04:00,13.4,4.5,30.07,North,-999,0.0,0.0,67,0.00,,,0.00,0.00,VWS V14.01,2013-03-25 10:04:00,
2013-03-25 04:09:00,13.7,4.8,30.07,North,-999,0.0,0.0,67,0.00,,,0.00,0.00,VWS V14.01,2013-03-25 10:09:00,
2013-03-25 04:14:00,14.0,5.4,30.07,North,-999,0.0,0.0,68,0.00,,,0.00,0.00,VWS V14.01,2013-03-25 10:14:00,
2013-03-25 04:19:00,14.3,5.4,30.07,North,-999,0.0,0.0,67,0.00,,,0.00,0.00,VWS V14.01,2013-03-25 10:19:00,
2013-03-25 04:24:00,14.4,5.1,30.07,North,-999,0.0,0.0,66,0.00,,,0.00,0.00,VWS V14.01,2013-03-25 10:24:00,
2013-03-25 04:29:00,14.1,4.5,30.07,North,-999,0.0,0.0,65,0.00,,,0.00,0.00,VWS V14.01,2013-03-25 10:29:00,
2013-03-25 04:34:00,13.9,5.0,30.07,North,-999,0.0,0.0,67,0.00,,,0.00,0.00,VWS V14.01,2013-03-25 10:34:00,
2013-03-25 04:39:00,14.1,5.8,30.07,North,-999,0.0,0.0,69,0.00,,,0.00,0.00,VWS V14.01,2013-03-25 10:39:00,
2013-03-25 04:44:00,14.4,5.8,30.07,North,-999,0.0,0.0,68,0.00,,,0.00,0.00,VWS V14.01,2013-03-25 10:44:00,
2013-03-25 04:49:00,14.8,6.2,30.07,North,-999,0.0,0.0,68,0.00,,,0.00,0.00,VWS V14.01,2013-03-25 10:49:00,
2013-03-25 04:54:00,14.9,5.6,30.07,North,-999,0.0,0.0,66,0.00,,,0.00,0.00,VWS V14.01,2013-03-25 10:54:00,
2013-03-25 04:59:00,14.8,5.8,30.07,North,-999,0.0,0.0,67,0.00,,,0.00,0.00,VWS V14.01,2013-03-25 10:59:00,
2013-03-25 05:04:00,14.8,5.8,30.07,North,-999,0.0,0.0,67,0.00,,,0.00,0.00,VWS V14.01,2013-03-25 11:04:00,
2013-03-25 05:09:00,14.9,5.9,30.07,North,-999,0.0,0.0,67,0.00,,,0.00,0.00,VWS V14.01,2013-03-25 11:09:00,
2013-03-25 05:14:00,15.2,5.9,30.07,North,-999,0.0,0.0,66,0.00,,,0.00,0.00,VWS V14.01,2013-03-25 11:14:00,
2013-03-25 05:19:00,14.7,5.1,30.07,North,-999,0.0,0.0,65,0.00,,,0.00,0.00,VWS V14.01,2013-03-25 11:19:00,
2013-03-25 05:24:00,14.8,5.2,30.07,North,-999,0.0,0.0,65,0.00,,,0.00,0.00,VWS V14.01,2013-03-25 11:24:00,
2013-03-25 05:29:00,14.4,4.5,30.07,North,-999,0.0,0.0,64,0.00,,,0.00,0.00,VWS V14.01,2013-03-25 11:29:00,
2013-03-25 05:34:00,14.4,5.1,30.07,North,-999,0.0,0.0,66,0.00,,,0.00,0.00,VWS V14.01,2013-03-25 11:34:00,
2013-03-25 05:39:00,14.1,4.5,30.07,North,-999,0.0,0.0,65,0.00,,,0.00,0.00,VWS V14.01,2013-03-25 11:39:00,
2013-03-25 05:44:00,13.5,3.6,30.07,North,-999,0.0,0.0,64,0.00,,,0.00,0.00,VWS V14.01,2013-03-25 11:44:00,
2013-03-25 05:49:00,13.0,3.8,30.07,North,-999,0.0,0.0,66,0.00,,,0.00,0.00,VWS V14.01,2013-03-25 11:49:00,
2013-03-25 05:54:00,12.7,3.2,30.07,North,-999,0.0,0.0,65,0.00,,,0.00,0.00,VWS V14.01,2013-03-25 11:54:00,
2013-03-25 05:59:00,11.7,1.9,30.07,North,-999,0.0,0.0,64,0.00,,,0.00,0.00,VWS V14.01,2013-03-25 11:59:00,
2013-03-25 06:04:00,11.0,2.2,30.07,North,-999,0.0,0.0,67,0.00,,,0.00,0.00,VWS V14.01,2013-03-25 12:04:00,
2013-03-25 06:09:00,11.5,3.0,30.07,North,-999,0.0,0.0,68,0.00,,,0.00,0.00,VWS V14.01,2013-03-25 12:09:00,
2013-03-25 06:14:00,12.5,4.6,30.07,North,-999,0.0,0.0,70,0.00,,,0.00,0.00,VWS V14.01,2013-03-25 12:14:00,
2013-03-25 06:19:00,13.0,4.1,30.07,North,-999,0.0,0.0,67,0.00,,,0.00,0.00,VWS V14.01,2013-03-25 12:19:00,
2013-03-25 06:24:00,12.8,2.9,30.07,North,-999,0.0,0.0,64,0.00,,,0.00,0.00,VWS V14.01,2013-03-25 12:24:00,
2013-03-25 06:29:00,12.3,2.5,30.07,North,-999,0.0,0.0,64,0.00,,,0.00,0.00,VWS V14.01,2013-03-25 12:29:00,
2013-03-25 06:34:00,11.9,2.4,30.07,North,-999,0.0,0.0,65,0.00,,,0.00,0.00,VWS V14.01,2013-03-25 12:34:00,
2013-03-25 06:39:00,12.0,3.5,30.07,North,-999,0.0,0.0,68,0.00,,,0.00,0.00,VWS V14.01,2013-03-25 12:39:00,
2013-03-25 06:44:00,12.4,4.2,30.07,North,-999,0.0,0.0,69,0.00,,,0.00,0.00,VWS V14.01,2013-03-25 12:44:00,
2013-03-25 06:49:00,12.9,5.0,30.07,North,-999,0.0,0.0,70,0.00,,,0.00,0.00,VWS V14.01,2013-03-25 12:49:00,
2013-03-25 06:54:00,13.2,4.9,30.07,North,-999,0.0,0.0,69,0.00,,,0.00,0.00,VWS V14.01,2013-03-25 12:54:00,
2013-03-25 06:59:00,13.0,3.1,30.07,North,-999,0.0,0.0,64,0.00,,,0.00,0.00,VWS V14.01,2013-03-25 12:59:00,
2013-03-25 07:04:00,12.0,2.2,30.07,North,-999,0.0,0.0,64,0.00,,,0.00,0.00,VWS V14.01,2013-03-25 13:04:00,
2013-03-25 07:09:00,11.5,2.7,30.07,North,-999,0.0,0.0,67,0.00,,,0.00,0.00,VWS V14.01,2013-03-25 13:09:00,
2013-03-25 07:14:00,11.1,2.3,30.07,North,-999,0.0,0.0,67,0.00,,,0.00,7.00,VWS V14.01,2013-03-25 13:14:00,
2013-03-25 07:19:00,11.0,2.5,30.07,North,-999,0.0,0.0,68,0.00,,,0.00,9.00,VWS V14.01,2013-03-25 13:19:00,
2013-03-25 07:24:00,11.0,2.5,30.08,North,-999,0.0,0.0,68,0.00,,,0.00,12.00,VWS V14.01,2013-03-25 13:24:00,
2013-03-25 07:29:00,11.1,2.9,30.07,North,-999,0.0,0.0,69,0.00,,,0.00,16.00,VWS V14.01,2013-03-25 13:29:00,
2013-03-25 07:34:00,11.2,2.4,30.08,North,-999,0.0,0.0,67,0.00,,,0.00,23.00,VWS V14.01,2013-03-25 13:34:00,
2013-03-25 07:39:00,10.9,1.5,30.08,North,-999,0.0,0.0,65,0.00,,,0.00,32.00,VWS V14.01,2013-03-25 13:39:00,
2013-03-25 07:44:00,10.2,0.8,30.08,North,-999,0.0,0.0,65,0.00,,,0.00,42.00,VWS V14.01,2013-03-25 13:44:00,
2013-03-25 07:49:00,10.1,1.7,30.08,North,-999,0.0,0.0,68,0.00,,,0.00,54.00,VWS V14.01,2013-03-25 13:49:00,
2013-03-25 07:54:00,10.2,2.1,30.08,North,-999,0.0,0.0,69,0.00,,,0.00,69.00,VWS V14.01,2013-03-25 13:54:00,
2013-03-25 07:59:00,10.2,2.1,30.08,North,-999,0.0,0.0,69,0.00,,,0.00,84.00,VWS V14.01,2013-03-25 13:59:00,
2013-03-25 08:04:00,10.3,1.9,30.08,North,-999,0.0,0.0,68,0.00,,,0.00,102.00,VWS V14.01,2013-03-25 14:04:00,
2013-03-25 08:09:00,10.7,2.9,30.08,North,-999,0.0,0.0,70,0.00,,,0.00,121.00,VWS V14.01,2013-03-25 14:09:00,
2013-03-25 08:14:00,11.5,3.9,30.07,North,-999,0.0,0.0,71,0.00,,,0.00,137.00,VWS V14.01,2013-03-25 14:14:00,
2013-03-25 08:19:00,12.5,4.9,30.08,North,-999,0.0,2.0,71,0.00,,,0.00,156.00,VWS V14.01,2013-03-25 14:19:00,
2013-03-25 08:24:00,13.1,4.8,30.08,North,-999,1.0,3.0,69,0.00,,,0.00,174.00,VWS V14.01,2013-03-25 14:24:00,
2013-03-25 08:29:00,13.5,4.9,30.08,North,-999,0.0,0.0,68,0.00,,,0.00,195.00,VWS V14.01,2013-03-25 14:29:00,
2013-03-25 08:34:00,13.9,5.3,30.08,North,-999,1.0,2.0,68,0.00,,,0.00,213.00,VWS V14.01,2013-03-25 14:34:00,
2013-03-25 08:39:00,14.6,5.3,30.08,North,-999,1.0,3.0,66,0.00,,,0.00,232.00,VWS V14.01,2013-03-25 14:39:00,
2013-03-25 08:44:00,14.7,5.4,30.07,North,-999,2.0,4.0,66,0.00,,,0.00,246.00,VWS V14.01,2013-03-25 14:44:00,
2013-03-25 08:49:00,14.9,5.3,30.08,North,-999,1.0,2.0,65,0.00,,,0.00,260.00,VWS V14.01,2013-03-25 14:49:00,
2013-03-25 08:54:00,15.6,6.3,30.07,North,-999,1.0,2.0,66,0.00,,,0.00,278.00,VWS V14.01,2013-03-25 14:54:00,
2013-03-25 08:59:00,16.2,6.2,30.08,North,-999,0.0,0.0,64,0.00,,,0.00,294.00,VWS V14.01,2013-03-25 14:59:00,
2013-03-25 09:04:00,16.7,6.7,30.08,North,-999,0.0,2.0,64,0.00,,,0.00,311.00,VWS V14.01,2013-03-25 15:04:00,
2013-03-25 09:09:00,17.6,6.8,30.08,North,-999,0.0,0.0,62,0.00,,,0.00,327.00,VWS V14.01,2013-03-25 15:09:00,
2013-03-25 09:14:00,18.3,7.1,30.08,North,-999,0.0,1.0,61,0.00,,,0.00,343.00,VWS V14.01,2013-03-25 15:14:00,
2013-03-25 09:19:00,19.0,7.4,30.08,North,-999,0.0,2.0,60,0.00,,,0.00,357.00,VWS V14.01,2013-03-25 15:19:00,
2013-03-25 09:24:00,19.9,7.9,30.08,North,-999,1.0,4.0,59,0.00,,,0.00,374.00,VWS V14.01,2013-03-25 15:24:00,
2013-03-25 09:29:00,20.8,8.4,30.08,North,-999,3.0,3.0,58,0.00,,,0.00,388.00,VWS V14.01,2013-03-25 15:29:00,
2013-03-25 09:34:00,21.2,8.7,30.07,North,-999,3.0,6.0,58,0.00,,,0.00,404.00,VWS V14.01,2013-03-25 15:34:00,
2013-03-25 09:39:00,21.9,9.4,30.07,North,-999,3.0,3.0,58,0.00,,,0.00,418.00,VWS V14.01,2013-03-25 15:39:00,
2013-03-25 09:44:00,22.5,9.6,30.07,North,-999,4.0,6.0,57,0.00,,,0.00,434.00,VWS V14.01,2013-03-25 15:44:00,
2013-03-25 09:49:00,23.1,10.1,30.07,North,-999,5.0,5.0,57,0.00,,,0.00,450.00,VWS V14.01,2013-03-25 15:49:00,
2013-03-25 09:54:00,23.9,10.5,30.07,North,-999,6.0,6.0,56,0.00,,,0.00,462.00,VWS V14.01,2013-03-25 15:54:00,
2013-03-25 09:59:00,25.5,10.8,30.07,North,-999,6.0,11.0,53,0.00,,,0.00,478.00,VWS V14.01,2013-03-25 15:59:00,
2013-03-25 10:04:00,26.5,10.4,30.07,North,-999,3.0,11.0,50,0.00,,,0.00,492.00,VWS V14.01,2013-03-25 16:04:00,
2013-03-25 10:09:00,27.6,10.9,30.06,North,-999,7.0,12.0,49,0.00,,,0.00,506.00,VWS V14.01,2013-03-25 16:09:00,
2013-03-25 10:14:00,28.3,10.2,30.06,North,-999,3.0,15.0,46,0.00,,,0.00,520.00,VWS V14.01,2013-03-25 16:14:00,
2013-03-25 10:19:00,28.7,10.6,30.06,North,-999,10.0,12.0,46,0.00,,,0.00,533.00,VWS V14.01,2013-03-25 16:19:00,
2013-03-25 10:24:00,28.9,10.2,30.06,North,-999,11.0,12.0,45,0.00,,,0.00,545.00,VWS V14.01,2013-03-25 16:24:00,
2013-03-25 10:29:00,29.0,10.3,30.06,North,-999,6.0,7.0,45,0.00,,,0.00,557.00,VWS V14.01,2013-03-25 16:29:00,
2013-03-25 10:34:00,29.8,10.6,30.06,North,-999,7.0,13.0,44,0.00,,,0.00,570.00,VWS V14.01,2013-03-25 16:34:00,
2013-03-25 10:39:00,30.2,10.4,30.06,North,-999,11.0,11.0,43,0.00,,,0.00,584.00,VWS V14.01,2013-03-25 16:39:00,
2013-03-25 10:44:00,30.0,10.2,30.06,North,-999,5.0,17.0,43,0.00,,,0.00,596.00,VWS V14.01,2013-03-25 16:44:00,
2013-03-25 10:49:00,30.2,10.9,30.06,North,-999,15.0,18.0,44,0.00,,,0.00,606.00,VWS V14.01,2013-03-25 16:49:00,
2013-03-25 10:54:00,30.1,10.3,30.06,North,-999,6.0,18.0,43,0.00,,,0.00,619.00,VWS V14.01,2013-03-25 16:54:00,
2013-03-25 10:59:00,30.4,10.6,30.05,North,-999,9.0,13.0,43,0.00,,,0.00,631.00,VWS V14.01,2013-03-25 16:59:00,
2013-03-25 11:04:00,30.7,10.9,30.05,North,-999,11.0,17.0,43,0.00,,,0.00,640.00,VWS V14.01,2013-03-25 17:04:00,
2013-03-25 11:09:00,30.7,10.3,30.05,North,-999,7.0,15.0,42,0.00,,,0.00,650.00,VWS V14.01,2013-03-25 17:09:00,
2013-03-25 11:14:00,31.2,10.8,30.05,North,-999,11.0,17.0,42,0.00,,,0.00,659.00,VWS V14.01,2013-03-25 17:14:00,
2013-03-25 11:19:00,32.1,11.1,30.05,North,-999,9.0,9.0,41,0.00,,,0.00,670.00,VWS V14.01,2013-03-25 17:19:00,
2013-03-25 11:24:00,31.8,10.8,30.04,North,-999,14.0,17.0,41,0.00,,,0.00,680.00,VWS V14.01,2013-03-25 17:24:00,
2013-03-25 11:29:00,31.9,10.9,30.04,North,-999,13.0,13.0,41,0.00,,,0.00,689.00,VWS V14.01,2013-03-25 17:29:00,
2013-03-25 11:34:00,32.5,11.4,30.04,North,-999,10.0,16.0,41,0.00,,,0.00,696.00,VWS V14.01,2013-03-25 17:34:00,
2013-03-25 11:39:00,32.7,11.6,30.04,North,-999,13.0,16.0,41,0.00,,,0.00,705.00,VWS V14.01,2013-03-25 17:39:00,
2013-03-25 11:44:00,32.9,11.8,30.04,North,-999,6.0,18.0,41,0.00,,,0.00,715.00,VWS V14.01,2013-03-25 17:44:00,
2013-03-25 11:49:00,33.1,12.0,30.04,North,-999,7.0,17.0,41,0.00,,,0.00,721.00,VWS V14.01,2013-03-25 17:49:00,
2013-03-25 11:54:00,33.0,11.9,30.03,North,-999,13.0,18.0,41,0.00,,,0.00,724.00,VWS V14.01,2013-03-25 17:54:00,
2013-03-25 11:59:00,33.6,12.4,30.03,North,-999,14.0,15.0,41,0.00,,,0.00,737.00,VWS V14.01,2013-03-25 17:59:00,
2013-03-25 12:04:00,34.4,12.0,30.03,North,-999,13.0,16.0,39,0.00,,,0.00,742.00,VWS V14.01,2013-03-25 18:04:00,
2013-03-25 12:09:00,34.3,11.4,30.03,North,-999,14.0,17.0,38,0.00,,,0.00,751.00,VWS V14.01,2013-03-25 18:09:00,
2013-03-25 12:14:00,34.2,11.8,30.03,North,-999,13.0,21.0,39,0.00,,,0.00,752.00,VWS V14.01,2013-03-25 18:14:00,
2013-03-25 12:19:00,34.5,11.5,30.03,North,-999,14.0,20.0,38,0.00,,,0.00,759.00,VWS V14.01,2013-03-25 18:19:00,
2013-03-25 12:24:00,34.8,11.8,30.03,North,-999,12.0,20.0,38,0.00,,,0.00,765.00,VWS V14.01,2013-03-25 18:24:00,
2013-03-25 12:29:00,34.7,11.1,30.02,North,-999,5.0,14.0,37,0.00,,,0.00,761.00,VWS V14.01,2013-03-25 18:29:00,
2013-03-25 12:34:00,35.1,11.5,30.02,North,-999,15.0,19.0,37,0.00,,,0.00,773.00,VWS V14.01,2013-03-25 18:34:00,
2013-03-25 12:39:00,35.3,11.0,30.01,North,-999,13.0,17.0,36,0.00,,,0.00,777.00,VWS V14.01,2013-03-25 18:39:00,
2013-03-25 12:44:00,35.6,10.7,30.01,North,-999,7.0,21.0,35,0.00,,,0.00,780.00,VWS V14.01,2013-03-25 18:44:00,
2013-03-25 12:49:00,35.9,10.9,30.01,North,-999,11.0,16.0,35,0.00,,,0.00,784.00,VWS V14.01,2013-03-25 18:49:00,
2013-03-25 12:54:00,36.0,11.0,30.01,North,-999,10.0,21.0,35,0.00,,,0.00,786.00,VWS V14.01,2013-03-25 18:54:00,
2013-03-25 12:59:00,36.6,10.9,30.01,North,-999,20.0,20.0,34,0.00,,,0.00,788.00,VWS V14.01,2013-03-25 18:59:00,
2013-03-25 13:04:00,37.3,10.9,30.01,North,-999,18.0,24.0,33,0.00,,,0.00,791.00,VWS V14.01,2013-03-25 19:04:00,
2013-03-25 13:09:00,37.6,10.4,30.01,North,-999,8.0,12.0,32,0.00,,,0.00,789.00,VWS V14.01,2013-03-25 19:09:00,
2013-03-25 13:14:00,37.5,10.3,30.00,North,-999,12.0,21.0,32,0.00,,,0.00,793.00,VWS V14.01,2013-03-25 19:14:00,
2013-03-25 13:18:00,37.9,10.0,30.00,North,-999,12.0,19.0,31,0.00,,,0.00,789.00,VWS V14.01,2013-03-25 19:18:00,
2013-03-25 13:23:00,38.1,9.4,30.00,North,-999,13.0,21.0,30,0.00,,,0.00,793.00,VWS V14.01,2013-03-25 19:23:00,
2013-03-25 13:28:00,38.0,9.3,30.00,North,-999,14.0,15.0,30,0.00,,,0.00,791.00,VWS V14.01,2013-03-25 19:28:00,
2013-03-25 13:34:00,37.9,9.2,29.99,North,-999,14.0,21.0,30,0.00,,,0.00,789.00,VWS V14.01,2013-03-25 19:34:00,
2013-03-25 13:39:00,38.8,10.0,29.99,North,-999,14.0,15.0,30,0.00,,,0.00,791.00,VWS V14.01,2013-03-25 19:39:00,
2013-03-25 13:44:00,38.5,9.0,29.99,North,-999,11.0,19.0,29,0.00,,,0.00,791.00,VWS V14.01,2013-03-25 19:44:00,
2013-03-25 13:49:00,38.3,8.8,29.99,North,-999,16.0,19.0,29,0.00,,,0.00,789.00,VWS V14.01,2013-03-25 19:49:00,
2013-03-25 13:53:00,38.4,9.7,29.98,North,-999,8.0,21.0,30,0.00,,,0.00,788.00,VWS V14.01,2013-03-25 19:53:00,
2013-03-25 13:58:00,39.4,9.8,29.98,North,-999,11.0,16.0,29,0.00,,,0.00,782.00,VWS V14.01,2013-03-25 19:58:00,
2013-03-25 14:03:00,38.9,8.6,29.98,North,-999,18.0,25.0,28,0.00,,,0.00,779.00,VWS V14.01,2013-03-25 20:03:00,
2013-03-25 14:08:00,39.0,9.4,29.98,North,-999,14.0,16.0,29,0.00,,,0.00,777.00,VWS V14.01,2013-03-25 20:08:00,
2013-03-25 14:13:00,39.2,8.9,29.98,North,-999,6.0,17.0,28,0.00,,,0.00,772.00,VWS V14.01,2013-03-25 20:13:00,
2013-03-25 14:18:00,39.7,9.3,29.97,North,-999,15.0,19.0,28,0.00,,,0.00,768.00,VWS V14.01,2013-03-25 20:18:00,
2013-03-25 14:23:00,39.2,8.9,29.97,North,-999,12.0,22.0,28,0.00,,,0.00,765.00,VWS V14.01,2013-03-25 20:23:00,
2013-03-25 14:28:00,40.0,9.5,29.97,North,-999,14.0,19.0,28,0.00,,,0.00,756.00,VWS V14.01,2013-03-25 20:28:00,
2013-03-25 14:33:00,39.5,9.1,29.97,North,-999,11.0,23.0,28,0.00,,,0.00,751.00,VWS V14.01,2013-03-25 20:33:00,
2013-03-25 14:38:00,39.7,8.5,29.97,North,-999,16.0,17.0,27,0.00,,,0.00,738.00,VWS V14.01,2013-03-25 20:38:00,
2013-03-25 14:43:00,39.7,8.5,29.97,North,-999,14.0,22.0,27,0.00,,,0.00,731.00,VWS V14.01,2013-03-25 20:43:00,
2013-03-25 14:48:00,40.1,8.8,29.96,North,-999,8.0,12.0,27,0.00,,,0.00,735.00,VWS V14.01,2013-03-25 20:48:00,
2013-03-25 14:53:00,40.1,8.8,29.96,North,-999,16.0,22.0,27,0.00,,,0.00,726.00,VWS V14.01,2013-03-25 20:53:00,
2013-03-25 14:58:00,40.4,8.2,29.96,North,-999,13.0,15.0,26,0.00,,,0.00,710.00,VWS V14.01,2013-03-25 20:58:00,
2013-03-25 15:03:00,40.8,8.6,29.96,North,-999,12.0,18.0,26,0.00,,,0.00,707.00,VWS V14.01,2013-03-25 21:03:00,
2013-03-25 15:08:00,40.6,8.4,29.95,North,-999,16.0,16.0,26,0.00,,,0.00,703.00,VWS V14.01,2013-03-25 21:08:00,
2013-03-25 15:13:00,40.9,8.7,29.95,North,-999,20.0,25.0,26,0.00,,,0.00,691.00,VWS V14.01,2013-03-25 21:13:00,
2013-03-25 15:18:00,41.0,8.8,29.95,North,-999,23.0,25.0,26,0.00,,,0.00,686.00,VWS V14.01,2013-03-25 21:18:00,
2013-03-25 15:23:00,40.9,8.7,29.95,North,-999,9.0,25.0,26,0.00,,,0.00,677.00,VWS V14.01,2013-03-25 21:23:00,
2013-03-25 15:28:00,41.0,8.8,29.95,North,-999,9.0,9.0,26,0.00,,,0.00,668.00,VWS V14.01,2013-03-25 21:28:00,
2013-03-25 15:33:00,41.4,8.2,29.95,North,-999,5.0,21.0,25,0.00,,,0.00,638.00,VWS V14.01,2013-03-25 21:33:00,
2013-03-25 15:38:00,41.3,8.1,29.95,North,-999,19.0,19.0,25,0.00,,,0.00,649.00,VWS V14.01,2013-03-25 21:38:00,
2013-03-25 15:43:00,41.4,8.2,29.94,North,-999,7.0,20.0,25,0.00,,,0.00,633.00,VWS V14.01,2013-03-25 21:43:00,
2013-03-25 15:48:00,41.5,8.3,29.94,North,-999,15.0,18.0,25,0.00,,,0.00,626.00,VWS V14.01,2013-03-25 21:48:00,
2013-03-25 15:53:00,41.9,7.8,29.94,North,-999,11.0,22.0,24,0.00,,,0.00,615.00,VWS V14.01,2013-03-25 21:53:00,
2013-03-25 15:58:00,42.2,8.0,29.94,North,-999,7.0,12.0,24,0.00,,,0.00,603.00,VWS V14.01,2013-03-25 21:58:00,
2013-03-25 16:03:00,42.1,7.9,29.94,North,-999,20.0,23.0,24,0.00,,,0.00,591.00,VWS V14.01,2013-03-25 22:03:00,
2013-03-25 16:08:00,41.8,7.7,29.94,North,-999,11.0,11.0,24,0.00,,,0.00,578.00,VWS V14.01,2013-03-25 22:08:00,
2013-03-25 16:13:00,42.1,7.9,29.94,North,-999,15.0,19.0,24,0.00,,,0.00,566.00,VWS V14.01,2013-03-25 22:13:00,
2013-03-25 16:18:00,42.1,7.9,29.94,North,-999,14.0,20.0,24,0.00,,,0.00,554.00,VWS V14.01,2013-03-25 22:18:00,
2013-03-25 16:23:00,42.1,7.0,29.94,North,-999,10.0,22.0,23,0.00,,,0.00,541.00,VWS V14.01,2013-03-25 22:23:00,
2013-03-25 16:28:00,42.2,8.0,29.94,North,-999,12.0,16.0,24,0.00,,,0.00,529.00,VWS V14.01,2013-03-25 22:28:00,
2013-03-25 16:33:00,42.0,7.8,29.93,North,-999,13.0,22.0,24,0.00,,,0.00,517.00,VWS V14.01,2013-03-25 22:33:00,
2013-03-25 16:38:00,42.5,8.3,29.93,North,-999,13.0,13.0,24,0.00,,,0.00,501.00,VWS V14.01,2013-03-25 22:38:00,
2013-03-25 16:43:00,42.5,8.3,29.93,North,-999,11.0,24.0,24,0.00,,,0.00,487.00,VWS V14.01,2013-03-25 22:43:00,
2013-03-25 16:48:00,42.5,8.3,29.93,North,-999,18.0,23.0,24,0.00,,,0.00,471.00,VWS V14.01,2013-03-25 22:48:00,
2013-03-25 16:53:00,42.2,8.0,29.93,North,-999,14.0,23.0,24,0.00,,,0.00,459.00,VWS V14.01,2013-03-25 22:53:00,
2013-03-25 16:58:00,42.4,7.2,29.92,North,-999,15.0,16.0,23,0.00,,,0.00,445.00,VWS V14.01,2013-03-25 22:58:00,
2013-03-25 17:03:00,42.3,7.2,29.92,North,-999,13.0,19.0,23,0.00,,,0.00,431.00,VWS V14.01,2013-03-25 23:03:00,
2013-03-25 17:08:00,42.3,8.1,29.92,North,-999,17.0,17.0,24,0.00,,,0.00,417.00,VWS V14.01,2013-03-25 23:08:00,
2013-03-25 17:13:00,42.0,7.8,29.92,North,-999,12.0,20.0,24,0.00,,,0.00,403.00,VWS V14.01,2013-03-25 23:13:00,
2013-03-25 17:18:00,42.3,7.2,29.92,North,-999,14.0,17.0,23,0.00,,,0.00,385.00,VWS V14.01,2013-03-25 23:18:00,
2013-03-25 17:23:00,42.2,7.1,29.92,North,-999,17.0,19.0,23,0.00,,,0.00,369.00,VWS V14.01,2013-03-25 23:23:00,
2013-03-25 17:28:00,42.1,7.9,29.92,North,-999,13.0,14.0,24,0.00,,,0.00,355.00,VWS V14.01,2013-03-25 23:28:00,
2013-03-25 17:33:00,42.4,7.2,29.92,North,-999,17.0,21.0,23,0.00,,,0.00,338.00,VWS V14.01,2013-03-25 23:33:00,
2013-03-25 17:38:00,42.3,7.2,29.93,North,-999,11.0,18.0,23,0.00,,,0.00,320.00,VWS V14.01,2013-03-25 23:38:00,
2013-03-25 17:43:00,42.3,7.2,29.92,North,-999,10.0,22.0,23,0.00,,,0.00,302.00,VWS V14.01,2013-03-25 23:43:00,
2013-03-25 17:48:00,42.3,7.2,29.92,North,-999,11.0,13.0,23,0.00,,,0.00,285.00,VWS V14.01,2013-03-25 23:48:00,
2013-03-25 17:53:00,42.2,7.1,29.92,North,-999,11.0,21.0,23,0.00,,,0.00,267.00,VWS V14.01,2013-03-25 23:53:00,
2013-03-25 17:58:00,42.0,6.9,29.92,North,-999,12.0,13.0,23,0.00,,,0.00,248.00,VWS V14.01,2013-03-25 23:58:00,
2013-03-25 18:03:00,41.9,6.8,29.92,North,-999,12.0,19.0,23,0.00,,,0.00,227.00,VWS V14.01,2013-03-26 00:03:00,
2013-03-25 18:08:00,41.9,6.8,29.92,North,-999,9.0,10.0,23,0.00,,,0.00,207.00,VWS V14.01,2013-03-26 00:08:00,
2013-03-25 18:13:00,41.8,6.7,29.92,North,-999,12.0,18.0,23,0.00,,,0.00,186.00,VWS V14.01,2013-03-26 00:13:00,
2013-03-25 18:18:00,41.8,6.7,29.92,North,-999,12.0,12.0,23,0.00,,,0.00,167.00,VWS V14.01,2013-03-26 00:18:00,
2013-03-25 18:23:00,41.6,7.5,29.92,North,-999,10.0,17.0,24,0.00,,,0.00,148.00,VWS V14.01,2013-03-26 00:23:00,
2013-03-25 18:28:00,41.4,7.3,29.92,North,-999,19.0,19.0,24,0.00,,,0.00,134.00,VWS V14.01,2013-03-26 00:28:00,
2013-03-25 18:33:00,41.2,7.2,29.92,North,-999,13.0,19.0,24,0.00,,,0.00,116.00,VWS V14.01,2013-03-26 00:33:00,
2013-03-25 18:38:00,41.2,7.2,29.92,North,-999,9.0,19.0,24,0.00,,,0.00,97.00,VWS V14.01,2013-03-26 00:38:00,
2013-03-25 18:43:00,41.0,7.0,29.92,North,-999,10.0,18.0,24,0.00,,,0.00,81.00,VWS V14.01,2013-03-26 00:43:00,
2013-03-25 18:48:00,40.8,6.8,29.92,North,-999,16.0,18.0,24,0.00,,,0.00,67.00,VWS V14.01,2013-03-26 00:48:00,
2013-03-25 18:53:00,40.6,6.7,29.91,North,-999,9.0,18.0,24,0.00,,,0.00,40.00,VWS V14.01,2013-03-26 00:53:00,
2013-03-25 18:58:00,40.4,6.5,29.92,North,-999,9.0,18.0,24,0.00,,,0.00,32.00,VWS V14.01,2013-03-26 00:58:00,
2013-03-25 19:03:00,40.1,6.2,29.91,North,-999,13.0,13.0,24,0.00,,,0.00,25.00,VWS V14.01,2013-03-26 01:03:00,
2013-03-25 19:08:00,39.8,6.9,29.92,North,-999,10.0,15.0,25,0.00,,,0.00,19.00,VWS V14.01,2013-03-26 01:08:00,
2013-03-25 19:13:00,39.5,6.6,29.91,North,-999,9.0,17.0,25,0.00,,,0.00,14.00,VWS V14.01,2013-03-26 01:13:00,
2013-03-25 19:18:00,39.1,6.3,29.91,North,-999,11.0,12.0,25,0.00,,,0.00,11.00,VWS V14.01,2013-03-26 01:18:00,
2013-03-25 19:23:00,38.7,5.9,29.91,North,-999,4.0,12.0,25,0.00,,,0.00,7.00,VWS V14.01,2013-03-26 01:23:00,
2013-03-25 19:28:00,38.4,5.7,29.91,North,-999,5.0,5.0,25,0.00,,,0.00,5.00,VWS V14.01,2013-03-26 01:28:00,
2013-03-25 19:33:00,38.0,5.3,29.91,North,-999,4.0,14.0,25,0.00,,,0.00,0.00,VWS V14.01,2013-03-26 01:33:00,
2013-03-25 19:38:00,37.8,5.2,29.91,North,-999,2.0,14.0,25,0.00,,,0.00,0.00,VWS V14.01,2013-03-26 01:38:00,
2013-03-25 19:43:00,37.4,4.8,29.91,North,-999,3.0,7.0,25,0.00,,,0.00,0.00,VWS V14.01,2013-03-26 01:43:00,
2013-03-25 19:48:00,37.0,4.5,29.91,North,-999,2.0,7.0,25,0.00,,,0.00,0.00,VWS V14.01,2013-03-26 01:48:00,
2013-03-25 19:53:00,36.6,5.0,29.91,North,-999,1.0,4.0,26,0.00,,,0.00,0.00,VWS V14.01,2013-03-26 01:53:00,
2013-03-25 19:58:00,36.2,4.6,29.91,North,-999,3.0,4.0,26,0.00,,,0.00,0.00,VWS V14.01,2013-03-26 01:58:00,
2013-03-25 20:03:00,35.9,5.2,29.91,North,-999,2.0,3.0,27,0.00,,,0.00,0.00,VWS V14.01,2013-03-26 02:03:00,
2013-03-25 20:08:00,35.5,5.6,29.92,North,-999,3.0,4.0,28,0.00,,,0.00,0.00,VWS V14.01,2013-03-26 02:08:00,
2013-03-25 20:13:00,35.1,5.3,29.92,North,-999,3.0,4.0,28,0.00,,,0.00,0.00,VWS V14.01,2013-03-26 02:13:00,
2013-03-25 20:18:00,34.8,5.8,29.92,North,-999,2.0,5.0,29,0.00,,,0.00,0.00,VWS V14.01,2013-03-26 02:18:00,
2013-03-25 20:23:00,34.4,5.4,29.91,North,-999,3.0,4.0,29,0.00,,,0.00,0.00,VWS V14.01,2013-03-26 02:23:00,
2013-03-25 20:28:00,34.2,5.3,29.91,North,-999,2.0,4.0,29,0.00,,,0.00,0.00,VWS V14.01,2013-03-26 02:28:00,
2013-03-25 20:33:00,33.9,5.0,29.91,North,-999,0.0,4.0,29,0.00,,,0.00,0.00,VWS V14.01,2013-03-26 02:33:00,
2013-03-25 20:38:00,33.5,5.4,29.91,North,-999,3.0,4.0,30,0.00,,,0.00,0.00,VWS V14.01,2013-03-26 02:38:00,
2013-03-25 20:43:00,33.1,5.1,29.91,North,-999,0.0,3.0,30,0.00,,,0.00,0.00,VWS V14.01,2013-03-26 02:43:00,
2013-03-25 20:48:00,33.0,5.7,29.91,North,-999,2.0,3.0,31,0.00,,,0.00,0.00,VWS V14.01,2013-03-26 02:48:00,
2013-03-25 20:53:00,32.9,5.6,29.92,North,-999,0.0,1.0,31,0.00,,,0.00,0.00,VWS V14.01,2013-03-26 02:53:00,
2013-03-25 20:58:00,32.8,5.5,29.92,North,-999,0.0,1.0,31,0.00,,,0.00,0.00,VWS V14.01,2013-03-26 02:58:00,
2013-03-25 21:03:00,32.6,5.3,29.92,North,-999,0.0,0.0,31,0.00,,,0.00,0.00,VWS V14.01,2013-03-26 03:03:00,
2013-03-25 21:08:00,32.4,5.2,29.92,North,-999,0.0,0.0,31,0.00,,,0.00,0.00,VWS V14.01,2013-03-26 03:08:00,
2013-03-25 21:13:00,32.4,5.2,29.92,North,-999,0.0,0.0,31,0.00,,,0.00,0.00,VWS V14.01,2013-03-26 03:13:00,
2013-03-25 21:18:00,32.3,5.8,29.92,North,-999,0.0,0.0,32,0.00,,,0.00,0.00,VWS V14.01,2013-03-26 03:18:00,
2013-03-25 21:23:00,32.3,5.8,29.93,North,-999,0.0,0.0,32,0.00,,,0.00,0.00,VWS V14.01,2013-03-26 03:23:00,
2013-03-25 21:28:00,32.1,5.6,29.92,North,-999,0.0,0.0,32,0.00,,,0.00,0.00,VWS V14.01,2013-03-26 03:28:00,
2013-03-25 21:33:00,32.0,5.5,29.92,North,-999,0.0,0.0,32,0.00,,,0.00,0.00,VWS V14.01,2013-03-26 03:33:00,
2013-03-25 21:38:00,31.9,6.1,29.92,North,-999,0.0,0.0,33,0.00,,,0.00,0.00,VWS V14.01,2013-03-26 03:38:00,
2013-03-25 21:43:00,31.6,5.8,29.92,North,-999,0.0,0.0,33,0.00,,,0.00,0.00,VWS V14.01,2013-03-26 03:43:00,
2013-03-25 21:48:00,31.2,6.1,29.92,North,-999,0.0,2.0,34,0.00,,,0.00,0.00,VWS V14.01,2013-03-26 03:48:00,
2013-03-25 21:53:00,31.2,6.1,29.92,North,-999,0.0,0.0,34,0.00,,,0.00,0.00,VWS V14.01,2013-03-26 03:53:00,
2013-03-25 21:58:00,31.1,6.0,29.92,North,-999,0.0,0.0,34,0.00,,,0.00,0.00,VWS V14.01,2013-03-26 03:58:00,
2013-03-25 22:00:00,31.0,5.9,29.92,North,-999,0.0,0.0,34,0.00,,,0.00,0.00,VWS V14.01,2013-03-26 04:00:00,
2013-03-25 22:05:00,30.7,6.3,29.92,North,-999,0.0,0.0,35,0.00,,,0.00,0.00,VWS V14.01,2013-03-26 04:05:00,
2013-03-25 22:10:00,30.5,6.1,29.92,North,-999,0.0,0.0,35,0.00,,,0.00,0.00,VWS V14.01,2013-03-26 04:10:00,
2013-03-25 22:15:00,30.4,6.0,29.92,North,-999,0.0,2.0,35,0.00,,,0.00,0.00,VWS V14.01,2013-03-26 04:15:00,
2013-03-25 22:20:00,30.3,6.6,29.92,North,-999,0.0,0.0,36,0.00,,,0.00,0.00,VWS V14.01,2013-03-26 04:20:00,
2013-03-25 22:25:00,30.1,6.4,29.92,North,-999,0.0,0.0,36,0.00,,,0.00,0.00,VWS V14.01,2013-03-26 04:25:00,
2013-03-25 22:30:00,29.9,6.2,29.92,North,-999,0.0,0.0,36,0.00,,,0.00,0.00,VWS V14.01,2013-03-26 04:30:00,
2013-03-25 22:35:00,29.5,5.8,29.92,North,-999,0.0,0.0,36,0.00,,,0.00,0.00,VWS V14.01,2013-03-26 04:35:00,
2013-03-25 22:40:00,28.9,5.3,29.92,North,-999,0.0,1.0,36,0.00,,,0.00,0.00,VWS V14.01,2013-03-26 04:40:00,
2013-03-25 22:45:00,28.3,6.0,29.92,North,-999,2.0,2.0,38,0.00,,,0.00,0.00,VWS V14.01,2013-03-26 04:45:00,
2013-03-25 22:50:00,28.4,6.6,29.92,North,-999,0.0,2.0,39,0.00,,,0.00,0.00,VWS V14.01,2013-03-26 04:50:00,
2013-03-25 22:55:00,28.6,6.8,29.92,North,-999,0.0,2.0,39,0.00,,,0.00,0.00,VWS V14.01,2013-03-26 04:55:00,
2013-03-25 23:00:00,28.6,6.8,29.92,North,-999,0.0,0.0,39,0.00,,,0.00,0.00,VWS V14.01,2013-03-26 05:00:00,
2013-03-25 23:05:00,28.5,6.7,29.92,North,-999,0.0,0.0,39,0.00,,,0.00,0.00,VWS V14.01,2013-03-26 05:05:00,
2013-03-25 23:10:00,28.3,6.5,29.92,North,-999,0.0,0.0,39,0.00,,,0.00,0.00,VWS V14.01,2013-03-26 05:10:00,
2013-03-25 23:15:00,28.1,6.3,29.92,North,-999,0.0,0.0,39,0.00,,,0.00,0.00,VWS V14.01,2013-03-26 05:15:00,
2013-03-25 23:20:00,26.3,3.6,29.92,North,-999,2.0,3.0,37,0.00,,,0.00,0.00,VWS V14.01,2013-03-26 05:20:00,
2013-03-25 23:25:00,25.6,5.2,29.92,North,-999,0.0,3.0,41,0.00,,,0.00,0.00,VWS V14.01,2013-03-26 05:25:00,
2013-03-25 23:30:00,25.9,6.0,29.92,North,-999,2.0,2.0,42,0.00,,,0.00,0.00,VWS V14.01,2013-03-26 05:30:00,
2013-03-25 23:35:00,26.0,6.1,29.92,North,-999,1.0,2.0,42,0.00,,,0.00,0.00,VWS V14.01,2013-03-26 05:35:00,
2013-03-25 23:40:00,26.3,6.9,29.92,North,-999,0.0,2.0,43,0.00,,,0.00,0.00,VWS V14.01,2013-03-26 05:40:00,
2013-03-25 23:45:00,26.1,6.2,29.92,North,-999,0.0,2.0,42,0.00,,,0.00,0.00,VWS V14.01,2013-03-26 05:45:00,
2013-03-25 23:50:00,26.0,6.6,29.92,North,-999,0.0,0.0,43,0.00,,,0.00,0.00,VWS V14.01,2013-03-26 05:50:00,
2013-03-25 23:55:00,25.6,5.7,29.92,North,-999,0.0,5.0,42,0.00,,,0.00,0.00,VWS V14.01,2013-03-26 05:55:00,